Time;durP1;ratioP1;P1;durP2;ratioP2;P2;SDS_P1;SDS_P2;PMS_P1;PMS_P2;Temp;Humidity;BMP_temperature;BMP_pressure;BME280_temperature;BME280_humidity;BME280_pressure;Samples;Min_cycle;Max_cycle;Signal;HPM_P1;HPM_P2
2022/05/11 00:01:17;;;;;;;11.27;10.17;;;18.40;99.90;;;;;;5055857;28;20449;-59
2022/05/11 00:03:46;;;;;;;11.10;10.03;;;18.40;99.90;;;;;;5055903;28;20445;-60
2022/05/11 00:06:13;;;;;;;9.97;8.73;;;18.30;99.90;;;;;;5055781;28;20807;-59
2022/05/11 00:08:40;;;;;;;10.77;9.60;;;18.30;99.90;;;;;;5056090;28;20465;-59
2022/05/11 00:11:07;;;;;;;10.33;9.33;;;18.30;99.90;;;;;;5055657;28;20460;-60
2022/05/11 00:13:35;;;;;;;10.37;9.43;;;18.30;99.90;;;;;;5055689;28;20484;-60
2022/05/11 00:16:02;;;;;;;9.80;8.90;;;18.30;99.90;;;;;;5056026;28;20536;-60
2022/05/11 00:18:29;;;;;;;10.37;9.40;;;18.30;99.90;;;;;;5055541;28;20465;-59
2022/05/11 00:20:58;;;;;;;10.30;9.50;;;18.30;99.90;;;;;;5055922;28;20446;-59
2022/05/11 00:23:26;;;;;;;9.70;8.90;;;18.30;99.90;;;;;;5055738;28;20437;-60
2022/05/11 00:25:53;;;;;;;10.47;9.40;;;18.30;99.90;;;;;;5055552;28;20468;-60
2022/05/11 00:28:20;;;;;;;9.67;8.83;;;18.30;99.90;;;;;;5055580;28;20885;-59
2022/05/11 00:30:48;;;;;;;9.73;8.83;;;18.30;99.90;;;;;;5055442;28;20491;-60
2022/05/11 00:33:16;;;;;;;9.30;8.40;;;18.20;99.90;;;;;;5054949;28;20515;-59
2022/05/11 00:35:45;;;;;;;9.47;8.60;;;18.20;99.90;;;;;;5055568;28;20540;-59
2022/05/11 00:38:15;;;;;;;9.23;8.43;;;18.20;99.90;;;;;;5055391;28;20477;-59
2022/05/11 00:40:50;;;;;;;10.10;8.37;;;18.10;99.90;;;;;;5055585;28;20449;-59
2022/05/11 00:43:28;;;;;;;11.23;8.40;;;18.10;99.90;;;;;;5055424;28;20789;-60
2022/05/11 00:46:01;;;;;;;11.23;8.50;;;18.00;99.90;;;;;;5055095;28;20422;-59
2022/05/11 00:51:15;;;;;;;9.10;8.40;;;18.00;99.90;;;;;;5055220;28;20409;-59
2022/05/11 00:53:48;;;;;;;8.60;7.80;;;17.90;99.90;;;;;;5055244;28;20495;-59
2022/05/11 00:56:15;;;;;;;9.07;8.20;;;17.90;99.90;;;;;;5055279;28;20924;-59
2022/05/11 00:58:46;;;;;;;8.20;7.50;;;18.00;99.90;;;;;;5054658;28;21006;-59
2022/05/11 01:01:13;;;;;;;8.30;7.63;;;18.00;99.90;;;;;;5055172;28;20429;-59
2022/05/11 01:03:46;;;;;;;9.43;8.53;;;18.00;99.90;;;;;;5054620;28;20814;-60
2022/05/11 01:06:14;;;;;;;8.43;7.60;;;18.00;99.90;;;;;;5055125;28;20794;-59
2022/05/11 01:08:41;;;;;;;8.97;8.10;;;18.00;99.90;;;;;;5054553;28;20556;-60
2022/05/11 01:11:11;;;;;;;9.90;7.27;;;17.90;99.90;;;;;;5054674;28;20545;-60
2022/05/11 01:13:41;;;;;;;7.80;7.10;;;17.80;99.90;;;;;;5054998;28;20491;-60
2022/05/11 01:16:08;;;;;;;8.93;8.10;;;17.70;99.90;;;;;;5055123;28;20532;-60
2022/05/11 01:18:38;;;;;;;9.00;8.20;;;17.80;99.90;;;;;;5054588;28;20465;-60
2022/05/11 01:21:07;;;;;;;9.30;8.47;;;17.80;99.90;;;;;;5054771;28;20453;-59
2022/05/11 01:23:42;;;;;;;8.43;7.73;;;17.80;99.90;;;;;;5054311;28;20537;-59
2022/05/11 01:26:11;;;;;;;8.07;7.37;;;17.70;99.90;;;;;;5054679;28;20463;-60
2022/05/11 01:28:41;;;;;;;8.37;7.67;;;17.80;99.90;;;;;;5054097;28;20891;-59
2022/05/11 01:31:11;;;;;;;8.20;7.50;;;17.70;99.90;;;;;;5054587;28;20535;-59
2022/05/11 01:33:41;;;;;;;10.63;7.50;;;17.70;99.90;;;;;;5053772;28;20489;-60
2022/05/11 01:36:16;;;;;;;8.27;7.57;;;17.70;99.90;;;;;;5054218;28;20476;-60
2022/05/11 01:38:45;;;;;;;8.17;7.47;;;17.70;99.90;;;;;;5054281;28;20471;-59
2022/05/11 01:41:20;;;;;;;8.10;7.40;;;17.70;99.90;;;;;;5054049;28;20484;-59
2022/05/11 01:43:47;;;;;;;7.80;7.03;;;17.70;99.90;;;;;;5054384;28;20426;-60
2022/05/11 01:46:16;;;;;;;8.47;7.73;;;17.70;99.90;;;;;;5053904;28;20445;-60
2022/05/11 01:48:43;;;;;;;8.20;7.50;;;17.70;99.90;;;;;;5053788;28;20548;-59
2022/05/11 01:51:11;;;;;;;7.37;6.77;;;17.60;99.90;;;;;;5053849;28;20452;-59
2022/05/11 01:53:39;;;;;;;7.90;7.30;;;17.60;99.90;;;;;;5053263;28;20492;-59
2022/05/11 01:56:06;;;;;;;7.60;6.90;;;17.60;99.90;;;;;;5054409;28;20492;-59
2022/05/11 01:58:35;;;;;;;8.70;6.83;;;17.60;99.90;;;;;;5053910;28;20476;-59
2022/05/11 02:01:03;;;;;;;8.63;7.53;;;17.60;99.90;;;;;;5054039;28;20453;-59
2022/05/11 02:03:30;;;;;;;9.30;7.87;;;17.60;99.90;;;;;;5053679;28;20464;-59
2022/05/11 02:08:43;;;;;;;7.60;6.90;;;17.60;99.90;;;;;;5053627;28;20448;-60
2022/05/11 02:11:11;;;;;;;7.20;6.50;;;17.60;99.90;;;;;;5053769;28;20453;-59
2022/05/11 02:13:40;;;;;;;7.43;6.83;;;17.60;99.90;;;;;;5053770;28;20589;-59
2022/05/11 02:16:07;;;;;;;8.93;7.00;;;17.60;99.90;;;;;;5053685;28;20540;-59
2022/05/11 02:18:35;;;;;;;7.90;7.10;;;17.70;99.90;;;;;;5053683;28;20561;-60
2022/05/11 02:21:02;;;;;;;7.00;6.40;;;17.70;99.90;;;;;;5053620;28;20532;-59
2022/05/11 02:23:29;;;;;;;6.67;6.03;;;17.80;99.90;;;;;;5053444;28;20440;-60
2022/05/11 02:25:58;;;;;;;7.00;6.30;;;17.90;99.90;;;;;;5053575;28;20453;-60
2022/05/11 02:28:25;;;;;;;7.37;6.77;;;18.00;99.90;;;;;;5053573;28;20821;-59
2022/05/11 02:30:56;;;;;;;7.70;6.93;;;18.00;99.90;;;;;;5053144;28;20882;-59
2022/05/11 02:33:25;;;;;;;6.67;6.07;;;18.00;99.90;;;;;;5052115;28;20489;-60
2022/05/11 02:35:52;;;;;;;7.37;6.77;;;18.10;99.90;;;;;;5052995;28;20430;-59
2022/05/11 02:38:22;;;;;;;7.20;6.60;;;18.10;99.90;;;;;;5053148;28;20560;-60
2022/05/11 02:40:51;;;;;;;7.37;6.67;;;18.00;99.90;;;;;;5053286;28;20537;-60
2022/05/11 02:43:18;;;;;;;6.90;6.20;;;18.00;99.90;;;;;;5053457;28;20507;-59
2022/05/11 02:45:46;;;;;;;5.80;5.30;;;18.00;99.90;;;;;;5053289;28;20449;-59
2022/05/11 02:48:17;;;;;;;6.20;5.63;;;18.00;99.90;;;;;;5053019;28;20999;-59
2022/05/11 02:50:48;;;;;;;6.63;6.07;;;18.00;99.90;;;;;;5052991;28;20792;-59
2022/05/11 02:53:16;;;;;;;7.40;6.80;;;17.90;99.90;;;;;;5052992;28;20466;-59
2022/05/11 02:55:45;;;;;;;7.47;6.67;;;17.90;99.90;;;;;;5052931;28;20461;-60
2022/05/11 02:58:14;;;;;;;9.67;6.80;;;17.90;99.90;;;;;;5052946;28;20559;-60
2022/05/11 03:00:43;;;;;;;8.13;7.43;;;18.00;99.90;;;;;;5053129;28;20449;-60
2022/05/11 03:03:12;;;;;;;10.03;6.43;;;17.90;99.90;;;;;;5053256;28;20510;-59
2022/05/11 03:05:42;;;;;;;7.93;6.43;;;18.00;99.90;;;;;;5054834;28;20453;-59
2022/05/11 03:08:09;;;;;;;10.83;6.63;;;18.00;99.90;;;;;;5056926;28;21001;-59
2022/05/11 03:10:37;;;;;;;8.00;6.70;;;18.00;99.90;;;;;;5056846;28;20543;-60
2022/05/11 03:13:04;;;;;;;6.60;6.10;;;17.90;99.90;;;;;;5056942;28;20449;-60
2022/05/11 03:15:32;;;;;;;8.00;7.07;;;17.90;99.90;;;;;;5057000;28;20480;-60
2022/05/11 03:18:00;;;;;;;7.20;6.60;;;17.90;99.90;;;;;;5056773;28;20472;-60
2022/05/11 03:20:27;;;;;;;8.00;7.30;;;17.90;99.90;;;;;;5056642;28;20445;-60
2022/05/11 03:22:56;;;;;;;7.57;6.73;;;17.90;99.90;;;;;;5057037;28;20522;-59
2022/05/11 03:25:25;;;;;;;6.67;6.07;;;18.00;99.90;;;;;;5056645;28;20464;-59
2022/05/11 03:27:53;;;;;;;7.33;6.60;;;18.00;99.90;;;;;;5056621;28;20472;-59
2022/05/11 03:30:21;;;;;;;6.83;6.23;;;18.10;99.90;;;;;;5056733;28;20848;-59
2022/05/11 03:35:32;;;;;;;6.67;6.07;;;18.00;99.90;;;;;;5056238;28;20465;-59
2022/05/11 03:38:01;;;;;;;8.83;6.67;;;18.10;99.90;;;;;;5056428;28;20449;-59
2022/05/11 03:40:28;;;;;;;6.90;6.20;;;18.10;99.90;;;;;;5056351;28;20426;-59
2022/05/11 03:42:55;;;;;;;6.70;6.17;;;18.10;99.90;;;;;;5056606;28;20449;-59
2022/05/11 03:45:25;;;;;;;7.27;6.67;;;18.10;99.90;;;;;;5056168;28;20882;-59
2022/05/11 03:47:53;;;;;;;8.37;6.53;;;18.10;99.90;;;;;;5056440;28;20445;-59
2022/05/11 03:50:22;;;;;;;6.77;6.17;;;18.10;99.90;;;;;;5056046;28;20445;-59
2022/05/11 03:52:50;;;;;;;6.23;5.73;;;18.00;99.90;;;;;;5056436;28;20449;-59
2022/05/11 03:55:19;;;;;;;6.70;6.03;;;18.10;99.90;;;;;;5056003;28;20484;-59
2022/05/11 03:57:46;;;;;;;6.40;5.90;;;18.10;99.90;;;;;;5056023;28;21002;-60
2022/05/11 04:00:18;;;;;;;6.40;5.90;;;18.00;99.90;;;;;;5056014;28;20457;-59
2022/05/11 04:02:46;;;;;;;7.20;6.50;;;18.00;99.90;;;;;;5056026;28;20525;-59
2022/05/11 04:05:14;;;;;;;6.60;6.03;;;18.00;99.90;;;;;;5055992;28;20450;-59
2022/05/11 04:07:42;;;;;;;6.90;6.23;;;17.90;99.90;;;;;;5056107;28;20472;-59
2022/05/11 04:10:11;;;;;;;7.97;7.00;;;17.90;99.90;;;;;;5056015;28;20813;-59
2022/05/11 04:12:40;;;;;;;6.70;6.03;;;17.80;99.90;;;;;;5056074;28;20455;-60
2022/05/11 04:15:09;;;;;;;7.13;6.47;;;17.80;99.90;;;;;;5055924;28;20901;-60
2022/05/11 04:17:36;;;;;;;7.43;6.73;;;17.70;99.90;;;;;;5055174;28;20452;-60
2022/05/11 04:20:04;;;;;;;7.30;6.70;;;17.70;99.90;;;;;;5055755;28;20445;-59
2022/05/11 04:22:31;;;;;;;6.70;6.20;;;17.70;99.90;;;;;;5055866;28;20903;-59
2022/05/11 04:24:59;;;;;;;6.30;5.80;;;17.60;99.90;;;;;;5055499;28;20449;-59
2022/05/11 04:27:26;;;;;;;6.83;6.17;;;17.60;99.90;;;;;;5055612;28;20455;-60
2022/05/11 04:29:54;;;;;;;7.33;6.63;;;17.60;99.90;;;;;;5055550;28;20476;-60
2022/05/11 04:32:22;;;;;;;7.47;6.77;;;17.60;99.90;;;;;;5055378;28;20568;-59
2022/05/11 04:34:50;;;;;;;7.27;6.43;;;17.60;99.90;;;;;;5055419;28;20513;-60
2022/05/11 04:37:17;;;;;;;7.47;6.87;;;17.50;99.90;;;;;;5055571;28;20453;-61
2022/05/11 04:39:44;;;;;;;7.60;6.90;;;17.50;99.90;;;;;;5055024;28;20555;-59
2022/05/11 04:42:12;;;;;;;7.60;6.97;;;17.50;99.90;;;;;;5055503;28;20540;-59
2022/05/11 04:44:39;;;;;;;7.80;6.60;;;17.50;99.90;;;;;;5054979;28;20476;-59
2022/05/11 04:47:10;;;;;;;7.73;7.13;;;17.50;99.90;;;;;;5055060;28;20998;-59
2022/05/11 04:49:38;;;;;;;8.60;7.80;;;17.50;99.90;;;;;;5055190;28;20468;-59
2022/05/11 04:52:08;;;;;;;11.33;7.20;;;17.50;99.90;;;;;;5054970;28;20971;-60
2022/05/11 04:54:37;;;;;;;7.03;6.17;;;17.50;99.90;;;;;;5054667;28;20987;-60
2022/05/11 04:57:06;;;;;;;7.97;6.67;;;17.50;99.90;;;;;;5054931;28;20959;-60
2022/05/11 04:59:34;;;;;;;7.60;6.90;;;17.50;99.90;;;;;;5054907;28;20501;-60
2022/05/11 05:02:01;;;;;;;8.33;7.63;;;17.50;99.90;;;;;;5054710;28;20526;-59
2022/05/11 05:04:31;;;;;;;8.33;6.87;;;17.50;99.90;;;;;;5054792;28;20441;-59
2022/05/11 05:06:58;;;;;;;9.30;6.20;;;17.60;99.90;;;;;;5055000;28;20552;-59
2022/05/11 05:09:26;;;;;;;7.53;6.67;;;17.70;99.90;;;;;;5054487;28;20552;-59
2022/05/11 05:11:53;;;;;;;8.30;6.50;;;17.70;99.90;;;;;;5054872;28;20445;-59
2022/05/11 05:14:20;;;;;;;6.73;6.03;;;17.70;99.90;;;;;;5054659;28;20495;-59
2022/05/11 05:16:48;;;;;;;6.33;5.73;;;17.80;99.90;;;;;;5054632;28;20524;-59
2022/05/11 05:19:16;;;;;;;7.33;6.30;;;17.80;99.90;;;;;;5054058;28;20971;-59
2022/05/11 05:21:44;;;;;;;6.43;5.93;;;17.90;99.90;;;;;;5054141;28;20449;-59
2022/05/11 05:24:11;;;;;;;6.80;5.97;;;17.90;99.90;;;;;;5054597;28;20499;-59
2022/05/11 05:26:38;;;;;;;7.10;6.07;;;18.00;99.90;;;;;;5054538;28;20493;-59
2022/05/11 05:31:50;;;;;;;5.60;5.10;;;18.00;99.90;;;;;;5053802;28;20827;-60
2022/05/11 05:34:17;;;;;;;5.27;4.87;;;18.10;99.90;;;;;;5053742;28;20877;-60
2022/05/11 05:36:46;;;;;;;7.23;4.80;;;18.20;99.90;;;;;;5054406;28;20449;-59
2022/05/11 05:39:13;;;;;;;7.53;6.30;;;18.20;99.90;;;;;;5053828;28;20629;-59
2022/05/11 05:41:41;;;;;;;5.90;5.40;;;18.30;99.90;;;;;;5053841;28;20455;-59
2022/05/11 05:44:08;;;;;;;7.10;6.40;;;18.30;99.90;;;;;;5053974;28;20449;-59
2022/05/11 05:46:36;;;;;;;6.40;5.77;;;18.40;99.90;;;;;;5053953;28;20441;-59
2022/05/11 05:49:04;;;;;;;8.73;5.60;;;18.40;99.90;;;;;;5054052;28;20465;-59
2022/05/11 05:51:31;;;;;;;6.30;5.67;;;18.50;99.90;;;;;;5053738;28;20958;-59
2022/05/11 05:54:00;;;;;;;6.10;5.50;;;18.50;99.90;;;;;;5053665;28;20477;-59
2022/05/11 05:56:27;;;;;;;6.70;5.60;;;18.50;99.90;;;;;;5053437;28;20485;-59
2022/05/11 05:58:58;;;;;;;6.27;5.77;;;18.60;99.90;;;;;;5053513;28;20473;-59
2022/05/11 06:01:27;;;;;;;6.67;5.80;;;18.70;99.90;;;;;;5053951;28;20434;-60
2022/05/11 06:03:54;;;;;;;7.03;6.33;;;18.80;99.90;;;;;;5053600;28;20449;-59
2022/05/11 06:06:21;;;;;;;6.83;6.23;;;18.90;99.90;;;;;;5053441;28;20875;-60
2022/05/11 06:08:48;;;;;;;7.77;5.97;;;18.90;99.90;;;;;;5053324;28;20471;-60
2022/05/11 06:11:17;;;;;;;6.97;6.37;;;19.00;99.90;;;;;;5053679;28;20529;-59
2022/05/11 06:13:46;;;;;;;6.07;5.57;;;19.10;99.90;;;;;;5053466;28;20433;-60
2022/05/11 06:16:15;;;;;;;6.27;5.77;;;19.20;99.90;;;;;;5053048;28;20534;-59
2022/05/11 06:18:43;;;;;;;6.90;5.60;;;19.30;99.90;;;;;;5053430;28;20465;-60
2022/05/11 06:21:11;;;;;;;6.60;5.90;;;19.40;99.90;;;;;;5053050;28;20756;-59
2022/05/11 06:23:39;;;;;;;10.03;7.00;;;19.60;99.90;;;;;;5053213;28;20449;-60
2022/05/11 06:26:06;;;;;;;6.87;6.37;;;19.70;99.90;;;;;;5052829;28;20457;-59
2022/05/11 06:28:37;;;;;;;5.60;5.10;;;19.90;99.90;;;;;;5053469;28;20506;-60
2022/05/11 06:31:04;;;;;;;6.10;5.60;;;20.00;99.90;;;;;;5053099;28;20896;-59
2022/05/11 06:33:33;;;;;;;7.93;5.80;;;20.10;99.90;;;;;;5052893;28;20567;-60
2022/05/11 06:36:00;;;;;;;7.30;5.87;;;20.30;99.90;;;;;;5052828;28;20851;-60
2022/05/11 06:38:27;;;;;;;6.43;5.70;;;20.40;99.90;;;;;;5053229;28;20809;-59
2022/05/11 06:40:54;;;;;;;5.90;5.40;;;20.50;99.90;;;;;;5052240;28;20803;-59
2022/05/11 06:43:22;;;;;;;5.10;4.70;;;20.60;99.90;;;;;;5053107;28;20451;-60
2022/05/11 06:45:51;;;;;;;6.20;5.70;;;20.70;99.90;;;;;;5052747;28;20478;-59
2022/05/11 06:48:18;;;;;;;5.80;5.13;;;20.80;99.90;;;;;;5053102;28;20465;-59
2022/05/11 06:50:45;;;;;;;6.30;5.70;;;20.80;99.90;;;;;;5052775;28;20488;-59
2022/05/11 06:53:14;;;;;;;5.27;4.87;;;20.80;99.90;;;;;;5052872;28;20849;-60
2022/05/11 07:01:14;;;;;;;7.93;6.23;;;21.00;99.90;;;;;;5052758;28;20404;-60
2022/05/11 07:03:42;;;;;;;6.80;5.97;;;21.00;99.90;;;;;;5052616;28;20449;-59
2022/05/11 07:06:09;;;;;;;5.77;5.17;;;21.10;99.90;;;;;;5052721;28;20524;-58
2022/05/11 07:08:41;;;;;;;5.30;4.90;;;21.20;99.90;;;;;;5052754;28;20556;-59
2022/05/11 07:13:55;;;;;;;6.20;5.57;;;21.40;99.90;;;;;;5052749;28;20492;-59
2022/05/11 07:16:25;;;;;;;5.40;4.90;;;21.50;99.90;;;;;;5052624;28;20570;-59
2022/05/11 07:18:53;;;;;;;5.03;4.60;;;21.60;99.90;;;;;;5052789;28;20469;-59
2022/05/11 07:21:20;;;;;;;5.30;4.80;;;21.60;99.90;;;;;;5052630;28;20456;-59
2022/05/11 07:23:47;;;;;;;7.10;5.10;;;21.80;99.90;;;;;;5052578;28;20445;-58
2022/05/11 07:26:14;;;;;;;5.43;4.93;;;21.90;99.90;;;;;;5052611;28;20449;-58
2022/05/11 07:28:42;;;;;;;4.90;4.50;;;22.00;99.90;;;;;;5052627;28;20473;-58
2022/05/11 07:31:09;;;;;;;5.40;4.90;;;;;;;;;;5052635;28;20475;-58
2022/05/11 07:33:38;;;;;;;5.13;4.73;;;22.30;99.40;;;;;;5052159;28;21049;-59
2022/05/11 07:36:05;;;;;;;6.40;5.80;;;22.50;99.10;;;;;;5051980;28;20484;-59
2022/05/11 07:38:37;;;;;;;5.53;4.83;;;;;;;;;;5052494;28;20583;-58
2022/05/11 07:41:05;;;;;;;6.67;4.77;;;23.80;97.70;;;;;;5051839;28;20901;-58
2022/05/11 07:43:32;;;;;;;5.50;5.00;;;24.40;97.20;;;;;;5052511;28;20932;-59
2022/05/11 07:45:59;;;;;;;6.00;5.50;;;25.10;96.20;;;;;;5052624;28;20441;-58
2022/05/11 07:48:27;;;;;;;5.03;4.53;;;25.60;95.30;;;;;;5052530;28;20480;-58
2022/05/11 07:50:56;;;;;;;4.80;4.10;;;26.30;93.80;;;;;;5052513;28;20528;-59
2022/05/11 07:53:23;;;;;;;6.40;4.33;;;27.10;93.20;;;;;;5054935;28;20540;-59
2022/05/11 07:59:52;;;;;;;4.47;4.17;;;27.50;92.10;;;;;;5056306;28;20484;-59
2022/05/11 08:01:23;;;;;;;6.47;3.93;;;27.70;86.60;;;;;;5055910;28;20455;-60
2022/05/11 08:03:50;;;;;;;4.53;4.17;;;27.80;84.00;;;;;;5056178;28;20481;-60
2022/05/11 08:06:18;;;;;;;4.10;3.80;;;27.40;86.10;;;;;;5055770;28;20536;-60
2022/05/11 08:08:46;;;;;;;4.60;4.17;;;27.60;84.50;;;;;;5056184;28;20492;-59
2022/05/11 08:11:13;;;;;;;4.50;4.17;;;27.90;83.60;;;;;;5055889;28;20541;-60
2022/05/11 08:13:41;;;;;;;5.87;3.50;;;28.20;82.30;;;;;;5055577;28;20532;-60
2022/05/11 08:16:08;;;;;;;4.00;3.70;;;28.70;79.20;;;;;;5055634;28;20837;-60
2022/05/11 08:18:35;;;;;;;4.63;4.23;;;29.00;77.40;;;;;;5055417;28;21005;-59
2022/05/11 08:21:03;;;;;;;5.00;4.27;;;29.10;76.20;;;;;;5055354;28;20492;-59
2022/05/11 08:23:32;;;;;;;4.17;3.50;;;29.10;76.50;;;;;;5055719;28;20523;-60
2022/05/11 08:26:00;;;;;;;5.70;4.30;;;28.80;76.10;;;;;;5055510;28;21022;-59
2022/05/11 08:28:28;;;;;;;4.60;4.30;;;28.40;76.90;;;;;;5055375;28;20532;-58
2022/05/11 08:33:42;;;;;;;4.80;4.30;;;29.30;76.50;;;;;;5055073;28;20541;-59
2022/05/11 08:36:11;;;;;;;4.70;4.30;;;29.80;72.30;;;;;;5054852;28;20487;-59
2022/05/11 08:38:42;;;;;;;5.10;4.10;;;29.50;71.70;;;;;;5055031;28;20477;-60
2022/05/11 08:41:16;;;;;;;5.90;4.10;;;29.00;70.90;;;;;;5055173;28;20437;-59
2022/05/11 08:43:44;;;;;;;4.80;4.40;;;29.20;69.70;;;;;;5054987;28;20892;-58
2022/05/11 08:46:16;;;;;;;4.40;4.10;;;29.10;70.50;;;;;;5055081;28;20450;-60
2022/05/11 08:48:52;;;;;;;4.30;3.90;;;29.60;70.30;;;;;;5055154;28;20544;-60
2022/05/11 08:51:28;;;;;;;6.13;3.73;;;29.80;69.20;;;;;;5055414;28;20483;-60
2022/05/11 08:54:09;;;;;;;7.20;4.63;;;30.20;70.50;;;;;;5055286;28;20426;-60
2022/05/11 08:56:36;;;;;;;3.93;3.33;;;30.70;66.60;;;;;;5055236;28;20484;-60
2022/05/11 08:59:03;;;;;;;6.67;4.30;;;30.30;66.50;;;;;;5055117;28;20467;-60
2022/05/11 09:01:39;;;;;;;4.77;4.00;;;30.30;65.00;;;;;;5054951;28;20546;-60
2022/05/11 09:04:11;;;;;;;4.40;4.00;;;30.30;65.60;;;;;;5054633;28;20425;-60
2022/05/11 09:06:43;;;;;;;4.30;3.90;;;30.20;65.50;;;;;;5054616;28;20991;-60
2022/05/11 09:09:12;;;;;;;5.53;4.53;;;30.80;67.10;;;;;;5054690;28;20469;-60
2022/05/11 09:11:43;;;;;;;4.90;4.40;;;31.10;64.90;;;;;;5054815;28;20449;-60
2022/05/11 09:14:14;;;;;;;9.57;5.03;;;31.00;65.90;;;;;;5054488;28;20956;-60
2022/05/11 09:16:45;;;;;;;4.73;4.33;;;31.90;67.60;;;;;;5054747;28;20469;-60
2022/05/11 09:19:14;;;;;;;4.80;4.43;;;31.40;64.30;;;;;;5054194;28;20465;-60
2022/05/11 09:21:50;;;;;;;5.13;4.73;;;30.40;63.30;;;;;;5054540;28;20450;-60
2022/05/11 09:24:30;;;;;;;6.13;4.50;;;30.30;63.50;;;;;;5054168;28;20747;-59
2022/05/11 09:27:12;;;;;;;6.60;4.63;;;29.90;64.00;;;;;;5054680;28;20547;-59
2022/05/11 09:29:42;;;;;;;5.27;4.77;;;30.10;66.70;;;;;;5054004;28;20833;-59
2022/05/11 09:32:25;;;;;;;4.87;4.47;;;29.60;63.10;;;;;;5053900;28;20515;-60
2022/05/11 09:34:52;;;;;;;5.43;4.80;;;30.00;73.80;;;;;;5053993;28;20440;-59
2022/05/11 09:37:32;;;;;;;4.43;4.10;;;30.00;62.70;;;;;;5053855;28;21105;-59
2022/05/11 09:40:13;;;;;;;4.70;4.40;;;30.90;63.60;;;;;;5053759;28;20539;-59
2022/05/11 09:42:51;;;;;;;11.23;4.60;;;31.40;62.30;;;;;;5054201;28;20443;-59
2022/05/11 09:45:40;;;;;;;5.00;4.60;;;31.90;61.80;;;;;;5053806;28;20441;-59
2022/05/11 09:48:21;;;;;;;11.27;5.70;;;31.30;61.70;;;;;;5053695;28;20548;-60
2022/05/11 09:50:52;;;;;;;5.50;5.10;;;31.40;61.30;;;;;;5053897;28;20509;-60
2022/05/11 09:53:32;;;;;;;5.20;4.80;;;31.30;61.10;;;;;;5053656;28;20426;-60
2022/05/11 09:56:22;;;;;;;5.20;4.70;;;31.30;62.80;;;;;;5053490;28;20847;-59
2022/05/11 09:58:49;;;;;;;6.50;5.50;;;31.30;60.80;;;;;;5053447;28;21020;-59
2022/05/11 10:01:22;;;;;;;5.20;4.70;;;30.90;60.60;;;;;;5053434;28;21023;-60
2022/05/11 10:03:54;;;;;;;6.00;5.40;;;31.40;61.60;;;;;;5053362;28;20439;-60
2022/05/11 10:06:22;;;;;;;6.13;4.83;;;31.20;60.10;;;;;;5053599;28;20429;-61
2022/05/11 10:08:53;;;;;;;6.87;5.20;;;31.60;60.70;;;;;;5053548;28;20552;-61
2022/05/11 10:11:25;;;;;;;5.57;5.17;;;32.50;61.90;;;;;;5053369;28;20438;-60
2022/05/11 10:21:50;;;;;;;6.73;5.23;;;31.80;59.10;;;;;;5053542;28;20461;-61
2022/05/11 10:22:31;;;;;;;5.43;5.00;;;32.50;59.60;;;;;;5053522;28;20584;-60
2022/05/11 10:25:14;;;;;;;5.60;5.20;;;32.90;58.60;;;;;;5053034;28;20452;-60
2022/05/11 10:27:46;;;;;;;11.80;5.60;;;32.00;58.80;;;;;;5053335;28;20430;-60
2022/05/11 10:30:20;;;;;;;5.47;4.97;;;31.50;59.30;;;;;;5053410;28;20436;-60
2022/05/11 10:33:38;;;;;;;4.80;4.40;;;31.70;59.70;;;;;;5052945;28;20870;-60
2022/05/11 10:36:16;;;;;;;5.80;5.30;;;31.40;59.10;;;;;;4989228;28;21074;-60
2022/05/11 10:38:58;;;;;;;7.57;4.50;;;32.00;58.60;;;;;;5051729;28;20468;-60
2022/05/11 10:41:32;;;;;;;4.93;4.53;;;31.10;58.10;;;;;;5053288;28;20438;-60
2022/05/11 10:44:16;;;;;;;5.10;4.60;;;30.40;58.70;;;;;;5053024;28;20430;-59
2022/05/11 10:46:50;;;;;;;4.60;4.20;;;30.70;57.60;;;;;;5053341;28;20461;-61
2022/05/11 10:49:32;;;;;;;5.13;4.43;;;31.30;57.10;;;;;;5052774;28;20551;-60
2022/05/11 10:52:16;;;;;;;5.67;5.27;;;31.50;56.80;;;;;;5053009;28;20505;-60
2022/05/11 10:54:56;;;;;;;4.40;4.00;;;31.70;56.20;;;;;;5052921;28;20436;-59
2022/05/11 10:57:35;;;;;;;11.20;4.57;;;31.20;55.80;;;;;;5052871;28;20469;-60
2022/05/11 11:00:08;;;;;;;9.90;4.83;;;31.40;56.40;;;;;;5053077;28;20473;-59
2022/05/11 11:02:57;;;;;;;5.20;3.60;;;32.00;56.70;;;;;;5052981;28;20815;-60
2022/05/11 11:05:32;;;;;;;6.63;4.77;;;32.40;54.60;;;;;;5052954;28;20441;-60
2022/05/11 11:08:11;;;;;;;4.83;4.43;;;31.50;54.10;;;;;;5053020;28;20453;-60
2022/05/11 11:10:44;;;;;;;4.53;4.13;;;32.10;53.90;;;;;;5052727;28;20429;-60
2022/05/11 11:13:25;;;;;;;4.03;3.73;;;32.00;55.20;;;;;;5052621;28;20909;-60
2022/05/11 11:15:57;;;;;;;7.20;4.30;;;32.10;53.10;;;;;;5052632;28;20435;-60
2022/05/11 11:18:30;;;;;;;4.03;3.53;;;31.20;53.30;;;;;;5052733;28;20556;-60
2022/05/11 11:21:02;;;;;;;4.93;4.53;;;31.80;54.00;;;;;;5052929;28;20509;-59
2022/05/11 11:23:33;;;;;;;4.83;4.43;;;31.80;53.30;;;;;;5052892;28;20456;-60
2022/05/11 11:26:05;;;;;;;4.60;4.30;;;31.70;54.00;;;;;;5053244;28;20931;-59
2022/05/11 11:28:53;;;;;;;4.70;4.30;;;31.20;53.50;;;;;;5056470;28;20553;-59
2022/05/11 11:31:24;;;;;;;6.33;4.83;;;31.60;53.30;;;;;;5056277;28;20560;-59
2022/05/11 11:34:18;;;;;;;4.30;4.00;;;31.50;53.20;;;;;;5056066;28;20580;-59
2022/05/11 11:36:45;;;;;;;7.43;4.77;;;31.90;53.50;;;;;;5056200;28;21037;-59
2022/05/11 11:39:34;;;;;;;6.73;4.67;;;31.30;53.60;;;;;;5056107;28;20573;-59
2022/05/11 11:42:04;;;;;;;4.33;3.93;;;31.40;53.60;;;;;;5056055;28;20449;-59
2022/05/11 11:44:39;;;;;;;4.10;3.70;;;31.70;53.70;;;;;;5056231;28;20445;-59
2022/05/11 11:47:36;;;;;;;4.37;4.07;;;31.30;53.60;;;;;;5056460;28;20445;-59
2022/05/11 11:50:05;;;;;;;4.70;4.30;;;30.70;53.90;;;;;;5029366;28;20445;-60
2022/05/11 11:52:36;;;;;;;4.53;4.23;;;31.30;56.00;;;;;;5055973;28;20804;-59
2022/05/11 11:55:09;;;;;;;4.97;4.57;;;31.70;53.40;;;;;;5055748;28;20985;-60
2022/05/11 11:57:37;;;;;;;4.87;4.47;;;31.90;54.10;;;;;;5055707;28;20967;-60
2022/05/11 12:00:28;;;;;;;4.43;4.07;;;31.90;52.60;;;;;;5055919;28;20453;-60
2022/05/11 12:02:59;;;;;;;4.23;3.93;;;31.60;52.30;;;;;;5055616;28;20534;-59
2022/05/11 12:05:32;;;;;;;4.30;3.90;;;31.50;52.10;;;;;;5055700;28;20440;-59
2022/05/11 12:16:26;;;;;;;4.50;3.80;;;31.90;49.80;;;;;;5055649;28;20464;-59
2022/05/11 12:19:08;;;;;;;4.87;4.37;;;31.40;50.40;;;;;;5055846;28;20522;-60
2022/05/11 12:21:38;;;;;;;3.97;3.67;;;31.60;49.90;;;;;;5055833;28;20429;-59
2022/05/11 12:24:07;;;;;;;4.17;3.87;;;32.00;48.40;;;;;;5055425;28;20540;-59
2022/05/11 12:26:38;;;;;;;4.10;3.70;;;32.50;49.00;;;;;;5055724;28;20468;-59
2022/05/11 12:31:56;;;;;;;6.20;3.57;;;32.70;48.60;;;;;;5055276;28;20882;-60
2022/05/11 12:34:26;;;;;;;5.83;3.23;;;32.40;48.10;;;;;;5055862;28;20788;-60
2022/05/11 12:36:54;;;;;;;4.60;3.60;;;32.00;47.40;;;;;;5055556;28;20473;-60
2022/05/11 12:39:35;;;;;;;4.40;3.90;;;32.50;48.10;;;;;;5054412;28;21029;-59
2022/05/11 12:42:03;;;;;;;4.37;3.97;;;31.90;48.70;;;;;;5055452;28;20460;-60
2022/05/11 12:44:33;;;;;;;4.17;3.77;;;31.60;47.10;;;;;;5054962;28;20449;-60
2022/05/11 12:47:02;;;;;;;3.80;3.40;;;31.50;47.30;;;;;;5055341;28;20474;-60
2022/05/11 12:49:31;;;;;;;4.73;3.60;;;31.60;46.40;;;;;;5055210;28;20469;-60
2022/05/11 12:52:03;;;;;;;3.40;3.00;;;31.50;46.10;;;;;;5054998;28;20944;-60
2022/05/11 12:54:32;;;;;;;5.10;3.30;;;31.30;47.30;;;;;;5055566;28;20453;-59
2022/05/11 12:57:02;;;;;;;4.20;3.90;;;31.80;46.80;;;;;;5054778;28;20492;-59
2022/05/11 12:59:30;;;;;;;9.37;4.00;;;32.00;47.00;;;;;;5054711;28;20831;-59
2022/05/11 13:02:16;;;;;;;3.80;3.40;;;31.70;46.70;;;;;;5054971;28;20461;-60
2022/05/11 13:04:53;;;;;;;4.23;3.87;;;31.60;47.10;;;;;;5054962;28;20457;-60
2022/05/11 13:07:24;;;;;;;3.70;3.40;;;32.20;47.10;;;;;;5054404;28;20475;-60
2022/05/11 13:09:54;;;;;;;4.37;3.20;;;31.50;46.40;;;;;;5054506;28;20468;-60
2022/05/11 13:12:23;;;;;;;4.37;3.57;;;31.80;47.70;;;;;;5054415;28;20442;-59
2022/05/11 13:14:52;;;;;;;6.13;3.60;;;32.10;46.90;;;;;;5054479;28;20944;-59
2022/05/11 13:17:22;;;;;;;4.43;3.67;;;32.00;47.00;;;;;;5054277;28;20568;-59
2022/05/11 13:19:57;;;;;;;4.03;3.60;;;31.70;47.30;;;;;;5054545;28;20499;-60
2022/05/11 13:22:26;;;;;;;3.50;3.10;;;31.50;46.30;;;;;;5054579;28;20425;-59
2022/05/11 13:24:55;;;;;;;4.00;3.63;;;31.60;46.20;;;;;;5054614;28;20575;-60
2022/05/11 13:27:32;;;;;;;4.07;3.50;;;31.70;46.40;;;;;;5054625;28;20422;-60
2022/05/11 13:30:14;;;;;;;4.00;3.70;;;31.20;45.80;;;;;;5054447;28;20996;-59
2022/05/11 13:32:45;;;;;;;4.17;3.83;;;31.10;46.30;;;;;;5054152;28;20477;-60
2022/05/11 13:35:30;;;;;;;3.77;3.47;;;31.00;47.50;;;;;;5054635;28;20841;-60
2022/05/11 13:38:16;;;;;;;4.47;3.50;;;31.40;47.10;;;;;;5053769;28;20803;-60
2022/05/11 13:40:57;;;;;;;4.27;3.87;;;31.50;45.50;;;;;;5054412;28;20470;-59
2022/05/11 13:43:31;;;;;;;5.23;3.77;;;31.30;45.60;;;;;;5054679;28;20437;-62
2022/05/11 13:46:00;;;;;;;3.27;2.97;;;31.40;44.70;;;;;;5054178;28;20434;-59
2022/05/11 13:48:29;;;;;;;3.33;3.03;;;31.40;45.10;;;;;;5054249;28;20552;-60